Time;durP1;ratioP1;P1;durP2;ratioP2;P2;SDS_P1;SDS_P2;PMS_P1;PMS_P2;Temp;Humidity;BMP_temperature;BMP_pressure;BME280_temperature;BME280_humidity;BME280_pressure;Samples;Min_cycle;Max_cycle;Signal;HPM_P1;HPM_P2
2022/05/10 03:01:32;;;;;;;0.93;0.93;;;16.60;70.60;;;;;;5755006;23;20492;-68
2022/05/10 03:03:59;;;;;;;0.80;0.80;;;16.60;70.60;;;;;;4996541;28;20504;-69
2022/05/10 03:06:27;;;;;;;0.80;0.80;;;16.60;70.80;;;;;;4996392;28;20445;-69
2022/05/10 03:08:55;;;;;;;0.90;0.90;;;16.50;70.80;;;;;;4996168;28;20923;-68
2022/05/10 03:11:23;;;;;;;1.20;1.10;;;16.50;70.90;;;;;;4995985;28;20980;-69
2022/05/10 03:13:50;;;;;;;0.80;0.80;;;16.50;71.00;;;;;;4996295;28;20885;-69
2022/05/10 03:16:17;;;;;;;1.00;1.00;;;16.50;71.10;;;;;;4997178;28;20861;-68
2022/05/10 03:18:46;;;;;;;0.93;0.83;;;16.50;71.20;;;;;;4996209;28;20449;-69
2022/05/10 03:21:13;;;;;;;1.00;0.90;;;16.50;71.40;;;;;;4996018;28;20527;-69
2022/05/10 03:23:40;;;;;;;0.90;0.90;;;16.50;71.70;;;;;;4995891;28;20496;-68
2022/05/10 03:26:07;;;;;;;0.93;0.93;;;16.50;71.80;;;;;;4996071;28;20531;-70
2022/05/10 03:28:34;;;;;;;0.90;0.90;;;16.50;71.80;;;;;;4996027;28;20507;-68
2022/05/10 03:31:00;;;;;;;0.90;0.90;;;16.50;71.90;;;;;;4995911;28;20472;-69
2022/05/10 03:33:27;;;;;;;0.90;0.90;;;16.50;72.00;;;;;;4996231;28;20457;-70
2022/05/10 03:35:55;;;;;;;0.90;0.90;;;16.50;71.80;;;;;;4997047;28;20543;-68
2022/05/10 03:38:22;;;;;;;1.33;1.00;;;16.50;72.00;;;;;;4997093;28;20866;-67
2022/05/10 03:40:48;;;;;;;1.00;1.00;;;16.50;72.10;;;;;;4996586;28;21116;-70
2022/05/10 03:43:15;;;;;;;0.87;0.87;;;16.50;72.20;;;;;;4995792;28;20865;-68
2022/05/10 03:45:42;;;;;;;1.00;1.00;;;16.50;72.30;;;;;;4995505;28;21003;-69
2022/05/10 03:48:09;;;;;;;1.20;0.90;;;16.50;72.30;;;;;;4995502;28;20457;-69
2022/05/10 03:50:36;;;;;;;1.07;1.07;;;16.40;72.40;;;;;;4995552;28;20449;-69
2022/05/10 03:53:04;;;;;;;1.00;0.90;;;16.40;72.60;;;;;;4995595;28;20540;-68
2022/05/10 03:55:31;;;;;;;0.90;0.90;;;16.50;72.60;;;;;;4995571;28;20453;-69
2022/05/10 03:57:58;;;;;;;1.00;1.00;;;16.40;72.60;;;;;;4995356;28;20449;-69
2022/05/10 04:00:27;;;;;;;0.90;0.90;;;16.40;72.60;;;;;;4994975;28;20461;-70
2022/05/10 04:02:56;;;;;;;1.07;1.00;;;16.40;72.60;;;;;;4995494;28;20552;-68
2022/05/10 04:05:24;;;;;;;0.90;0.90;;;16.40;72.70;;;;;;4995279;28;20536;-69
2022/05/10 04:07:51;;;;;;;0.97;0.97;;;16.40;72.80;;;;;;4995494;28;20453;-69
2022/05/10 04:10:22;;;;;;;1.87;1.00;;;16.40;72.90;;;;;;4995244;28;20523;-68
2022/05/10 04:12:49;;;;;;;0.90;0.90;;;16.40;72.90;;;;;;4995197;28;20437;-69
2022/05/10 04:15:18;;;;;;;0.80;0.80;;;16.40;72.90;;;;;;4995214;28;20527;-68
2022/05/10 04:17:45;;;;;;;0.97;0.97;;;16.40;72.80;;;;;;4994777;28;20489;-68
2022/05/10 04:20:14;;;;;;;0.90;0.90;;;16.50;72.70;;;;;;4995093;28;20452;-69
2022/05/10 04:22:41;;;;;;;0.90;0.90;;;16.50;72.40;;;;;;4994764;28;20873;-68
2022/05/10 04:25:08;;;;;;;0.90;0.90;;;16.60;72.20;;;;;;4995149;28;20453;-68
2022/05/10 04:27:36;;;;;;;1.00;1.00;;;16.50;71.60;;;;;;4994857;28;20777;-70
2022/05/10 04:30:04;;;;;;;1.00;1.00;;;16.50;71.40;;;;;;4995513;28;20449;-69
2022/05/10 04:32:31;;;;;;;0.90;0.90;;;16.50;71.20;;;;;;4994697;28;20464;-69
2022/05/10 04:34:58;;;;;;;0.90;0.90;;;16.50;71.00;;;;;;4994081;28;20480;-69
2022/05/10 04:37:24;;;;;;;1.07;0.97;;;16.50;71.00;;;;;;4994780;28;20477;-68
2022/05/10 04:42:36;;;;;;;0.97;0.97;;;16.50;70.70;;;;;;4994311;28;20444;-69
2022/05/10 04:45:04;;;;;;;0.90;0.90;;;16.60;70.50;;;;;;4994608;28;20449;-69
2022/05/10 04:47:30;;;;;;;0.90;0.90;;;16.60;70.60;;;;;;4994595;28;20507;-68
2022/05/10 04:49:57;;;;;;;1.33;1.00;;;16.70;70.50;;;;;;4994519;28;20457;-68
2022/05/10 04:52:23;;;;;;;1.10;1.10;;;16.80;70.70;;;;;;4994078;28;20984;-69
2022/05/10 04:54:50;;;;;;;1.00;1.00;;;16.90;70.80;;;;;;4994444;28;20453;-68
2022/05/10 04:57:17;;;;;;;0.90;0.90;;;17.10;70.80;;;;;;4994958;28;20517;-69
2022/05/10 04:59:45;;;;;;;1.30;1.20;;;17.20;70.70;;;;;;4994471;28;20476;-69
2022/05/10 05:02:13;;;;;;;1.10;1.10;;;17.40;70.50;;;;;;4994066;28;20620;-68
2022/05/10 05:04:40;;;;;;;1.30;1.10;;;17.40;70.10;;;;;;4993908;28;20941;-69
2022/05/10 05:07:06;;;;;;;0.90;0.90;;;17.50;70.10;;;;;;4994311;28;20441;-69
2022/05/10 05:09:33;;;;;;;1.10;1.10;;;17.60;70.30;;;;;;4994156;28;20449;-68
2022/05/10 05:12:00;;;;;;;1.07;0.97;;;17.70;70.20;;;;;;4994119;28;20536;-69
2022/05/10 05:14:26;;;;;;;0.90;0.90;;;17.70;70.40;;;;;;4994237;28;20480;-68
2022/05/10 05:16:54;;;;;;;0.90;0.90;;;17.60;70.80;;;;;;4994813;28;20476;-69
2022/05/10 05:19:21;;;;;;;1.00;1.00;;;17.50;71.30;;;;;;4993746;28;21051;-69
2022/05/10 05:21:48;;;;;;;1.10;1.10;;;17.40;71.50;;;;;;4993835;28;20542;-69
2022/05/10 05:24:15;;;;;;;1.10;1.10;;;17.40;71.80;;;;;;4993803;28;20460;-68
2022/05/10 05:26:41;;;;;;;1.10;1.00;;;17.20;72.50;;;;;;4993887;28;20504;-69
2022/05/10 05:29:08;;;;;;;1.10;1.10;;;17.10;73.10;;;;;;4993836;28;20552;-69
2022/05/10 05:31:35;;;;;;;1.10;1.10;;;16.90;74.00;;;;;;4993740;28;20481;-68
2022/05/10 05:34:03;;;;;;;1.00;1.00;;;17.10;74.00;;;;;;4993641;28;20448;-69
2022/05/10 05:36:30;;;;;;;1.27;1.27;;;17.50;73.20;;;;;;4993495;28;20531;-68
2022/05/10 05:38:56;;;;;;;1.10;1.00;;;17.60;73.10;;;;;;4993475;28;20877;-69
2022/05/10 05:41:23;;;;;;;1.10;1.10;;;17.90;73.00;;;;;;4993759;28;20469;-69
2022/05/10 05:43:50;;;;;;;1.10;1.10;;;18.10;72.70;;;;;;4993724;28;20453;-68
2022/05/10 05:46:16;;;;;;;1.00;1.00;;;18.20;72.00;;;;;;4993675;28;20449;-69
2022/05/10 05:48:43;;;;;;;1.00;1.00;;;18.40;72.10;;;;;;4993679;28;20460;-69
2022/05/10 05:51:11;;;;;;;1.03;0.93;;;18.50;72.00;;;;;;4993559;28;20469;-69
2022/05/10 05:53:38;;;;;;;0.93;0.93;;;18.50;71.70;;;;;;4993459;28;20445;-68
2022/05/10 05:56:08;;;;;;;0.90;0.90;;;18.70;71.70;;;;;;4993645;28;20456;-69
2022/05/10 05:58:35;;;;;;;1.13;1.03;;;18.90;71.00;;;;;;4993464;28;20442;-69
2022/05/10 06:01:02;;;;;;;1.00;1.00;;;19.00;70.80;;;;;;4992733;28;20992;-69
2022/05/10 06:03:29;;;;;;;1.27;1.00;;;19.10;70.30;;;;;;4993469;28;20429;-70
2022/05/10 06:05:55;;;;;;;1.10;1.00;;;19.30;70.10;;;;;;4993450;28;20834;-68
2022/05/10 06:08:23;;;;;;;1.00;1.00;;;19.50;69.00;;;;;;4993012;28;20513;-69
2022/05/10 06:10:52;;;;;;;1.00;1.00;;;19.60;69.20;;;;;;4993303;28;20472;-69
2022/05/10 06:13:21;;;;;;;1.00;0.90;;;19.70;67.20;;;;;;4993209;28;20457;-69
2022/05/10 06:15:49;;;;;;;0.80;0.80;;;19.40;67.30;;;;;;4993270;28;20498;-69
2022/05/10 06:18:15;;;;;;;0.93;0.93;;;19.50;66.70;;;;;;4992818;28;20858;-68
2022/05/10 06:20:42;;;;;;;1.00;1.00;;;19.60;67.50;;;;;;4993267;28;20484;-69
2022/05/10 06:23:09;;;;;;;0.90;0.90;;;19.90;65.90;;;;;;4993237;28;20507;-69
2022/05/10 06:25:38;;;;;;;0.90;0.90;;;19.90;66.90;;;;;;4993233;28;20826;-69
2022/05/10 06:28:05;;;;;;;0.90;0.90;;;20.10;66.30;;;;;;4993209;28;20441;-69
2022/05/10 06:30:32;;;;;;;0.90;0.90;;;20.30;65.10;;;;;;4993727;28;20540;-69
2022/05/10 06:33:00;;;;;;;2.60;0.90;;;20.60;64.80;;;;;;4994223;28;20508;-69
2022/05/10 06:35:28;;;;;;;0.90;0.90;;;20.60;64.30;;;;;;4993202;28;20501;-68
2022/05/10 06:40:40;;;;;;;1.00;0.90;;;20.80;64.60;;;;;;4993034;28;20488;-69
2022/05/10 06:43:07;;;;;;;0.80;0.80;;;20.80;65.10;;;;;;4992778;28;20449;-69
2022/05/10 06:45:33;;;;;;;0.87;0.87;;;20.80;63.40;;;;;;4993168;28;20445;-69
2022/05/10 06:48:00;;;;;;;1.00;1.00;;;21.00;64.70;;;;;;4992977;28;20453;-68
2022/05/10 06:50:27;;;;;;;1.10;1.00;;;21.20;64.50;;;;;;4993267;28;20449;-70
2022/05/10 06:52:57;;;;;;;0.80;0.80;;;21.20;62.80;;;;;;4993598;28;20449;-68
2022/05/10 06:55:24;;;;;;;0.80;0.80;;;21.30;64.60;;;;;;4993225;28;20456;-68
2022/05/10 06:57:52;;;;;;;0.83;0.83;;;21.40;62.90;;;;;;4995555;28;21086;-68
2022/05/10 07:00:20;;;;;;;0.80;0.80;;;21.60;64.70;;;;;;4996623;28;20503;-68
2022/05/10 07:02:47;;;;;;;0.97;0.90;;;21.70;62.50;;;;;;4996217;28;20481;-68
2022/05/10 07:05:16;;;;;;;0.90;0.90;;;21.80;62.20;;;;;;4996596;28;20457;-68
2022/05/10 07:07:43;;;;;;;0.83;0.83;;;22.10;62.10;;;;;;4996513;28;20861;-68
2022/05/10 07:10:11;;;;;;;0.90;0.90;;;22.50;62.10;;;;;;4996424;28;20460;-69
2022/05/10 07:12:39;;;;;;;0.80;0.80;;;22.70;59.80;;;;;;4996114;28;20824;-68
2022/05/10 07:15:11;;;;;;;1.30;0.80;;;22.70;61.20;;;;;;4996582;28;20552;-68
2022/05/10 07:17:38;;;;;;;0.80;0.80;;;22.80;58.60;;;;;;4996092;28;20915;-68
2022/05/10 07:20:06;;;;;;;0.80;0.80;;;22.40;60.90;;;;;;4996100;28;20964;-69
2022/05/10 07:22:33;;;;;;;0.80;0.80;;;22.60;59.90;;;;;;4996438;28;20473;-68
2022/05/10 07:25:01;;;;;;;1.00;1.00;;;22.50;60.50;;;;;;4996308;28;20471;-68
2022/05/10 07:27:27;;;;;;;0.90;0.73;;;22.20;60.70;;;;;;4996358;28;20544;-68
2022/05/10 07:29:54;;;;;;;0.80;0.80;;;22.30;61.70;;;;;;4996386;28;20499;-68
2022/05/10 07:32:24;;;;;;;0.90;0.90;;;22.40;61.40;;;;;;4996112;28;20871;-69
2022/05/10 07:34:51;;;;;;;0.83;0.83;;;22.60;60.10;;;;;;4996228;28;20512;-68
2022/05/10 07:37:17;;;;;;;1.10;1.00;;;22.40;60.40;;;;;;4996071;28;20484;-68
2022/05/10 07:39:44;;;;;;;0.83;0.83;;;22.60;61.00;;;;;;4996132;28;20834;-68
2022/05/10 07:42:11;;;;;;;0.80;0.80;;;22.60;60.40;;;;;;4995519;28;20987;-69
2022/05/10 07:44:37;;;;;;;0.80;0.80;;;22.40;61.20;;;;;;4995955;28;20457;-69
2022/05/10 07:47:04;;;;;;;0.90;0.90;;;22.50;59.90;;;;;;4996017;28;20532;-68
2022/05/10 07:49:33;;;;;;;0.80;0.80;;;22.70;59.20;;;;;;4995760;28;20511;-69
2022/05/10 07:52:00;;;;;;;0.70;0.70;;;22.90;59.80;;;;;;4995809;28;20591;-68
2022/05/10 07:54:28;;;;;;;0.80;0.80;;;22.80;58.40;;;;;;4995456;28;20449;-68
2022/05/10 07:56:54;;;;;;;0.87;0.87;;;23.00;59.40;;;;;;4995727;28;20879;-69
2022/05/10 07:59:21;;;;;;;0.80;0.80;;;23.30;57.60;;;;;;4995684;28;20457;-68
2022/05/10 08:01:48;;;;;;;0.80;0.80;;;23.40;57.40;;;;;;4995279;28;20473;-68
2022/05/10 08:04:14;;;;;;;0.70;0.70;;;23.50;57.60;;;;;;4995359;28;20449;-68
2022/05/10 08:06:42;;;;;;;0.80;0.80;;;23.10;58.30;;;;;;4995487;28;20449;-68
2022/05/10 08:09:09;;;;;;;0.80;0.80;;;23.10;58.10;;;;;;4994313;28;20449;-68
2022/05/10 08:11:35;;;;;;;0.80;0.80;;;23.20;58.00;;;;;;4994976;28;20976;-69
2022/05/10 08:14:02;;;;;;;0.90;0.90;;;23.20;58.20;;;;;;4995389;28;20445;-68
2022/05/10 08:16:31;;;;;;;0.83;0.83;;;23.30;58.00;;;;;;4995279;28;20453;-68
2022/05/10 08:18:58;;;;;;;0.77;0.77;;;23.40;57.20;;;;;;4995410;28;20480;-69
2022/05/10 08:21:25;;;;;;;0.80;0.80;;;23.50;57.50;;;;;;4995684;28;20480;-69
2022/05/10 08:23:55;;;;;;;0.80;0.80;;;23.70;57.20;;;;;;4995243;28;20460;-69
2022/05/10 08:26:21;;;;;;;0.77;0.77;;;23.90;56.60;;;;;;4995753;28;20460;-68
2022/05/10 08:28:48;;;;;;;0.80;0.80;;;24.10;57.40;;;;;;4995590;28;20457;-68
2022/05/10 08:31:15;;;;;;;0.73;0.73;;;23.90;57.10;;;;;;4995351;28;20512;-69
2022/05/10 08:33:45;;;;;;;0.70;0.70;;;23.70;58.40;;;;;;4995397;28;20449;-69
2022/05/10 08:36:12;;;;;;;0.70;0.70;;;24.00;59.20;;;;;;4996016;28;20455;-69
2022/05/10 08:38:39;;;;;;;0.77;0.77;;;24.10;58.20;;;;;;4995209;28;20513;-68
2022/05/10 08:41:12;;;;;;;0.80;0.80;;;24.50;58.00;;;;;;4994798;28;20479;-69
2022/05/10 08:43:44;;;;;;;1.37;0.80;;;24.50;57.90;;;;;;4995283;28;21067;-68
2022/05/10 08:46:14;;;;;;;0.80;0.80;;;24.70;56.70;;;;;;4994857;28;20940;-68
2022/05/10 08:48:42;;;;;;;0.70;0.70;;;24.60;56.30;;;;;;4994772;28;20437;-69
2022/05/10 08:51:09;;;;;;;1.10;0.80;;;24.70;56.80;;;;;;4994495;28;20539;-69
2022/05/10 08:53:36;;;;;;;0.70;0.70;;;25.00;53.80;;;;;;4994719;28;20515;-68
2022/05/10 08:56:12;;;;;;;0.70;0.70;;;25.00;53.80;;;;;;4994104;28;20929;-69
2022/05/10 08:58:48;;;;;;;0.83;0.83;;;24.60;55.20;;;;;;4994466;28;20468;-69
2022/05/10 09:01:19;;;;;;;0.70;0.70;;;24.70;56.20;;;;;;4994070;28;20968;-68
2022/05/10 09:03:53;;;;;;;0.70;0.67;;;25.30;53.40;;;;;;4994517;28;20460;-70
2022/05/10 09:06:27;;;;;;;0.80;0.70;;;25.40;53.10;;;;;;4994412;28;20442;-68
2022/05/10 09:09:06;;;;;;;0.60;0.60;;;25.50;51.00;;;;;;4994136;28;20971;-68
2022/05/10 09:11:43;;;;;;;1.30;0.87;;;25.30;50.90;;;;;;4994275;28;20527;-68
2022/05/10 09:16:40;;;;;;;0.70;0.70;;;25.20;50.80;;;;;;5113851;23;20520;-78
2022/05/10 09:19:10;;;;;;;0.77;0.77;;;25.30;50.20;;;;;;4996515;28;20484;-78
2022/05/10 09:21:46;;;;;;;0.70;0.70;;;25.30;49.30;;;;;;4996782;28;20506;-78
2022/05/10 09:24:23;;;;;;;0.80;0.80;;;25.50;50.30;;;;;;4997384;28;20437;-78
2022/05/10 09:26:53;;;;;;;0.70;0.70;;;25.20;50.40;;;;;;4977280;28;20976;-78
2022/05/10 09:29:32;;;;;;;1.03;0.73;;;25.00;52.00;;;;;;4977319;28;20853;-78
2022/05/10 09:34:55;;;;;;;0.70;0.70;;;24.90;54.20;;;;;;4976942;28;20972;-78
2022/05/10 09:37:25;;;;;;;0.90;0.90;;;24.90;52.40;;;;;;4977684;28;20474;-78
2022/05/10 09:40:13;;;;;;;0.70;0.70;;;25.20;51.90;;;;;;4976667;28;20902;-78
2022/05/10 09:42:43;;;;;;;0.70;0.70;;;25.10;52.20;;;;;;4977109;28;20497;-78
2022/05/10 09:45:14;;;;;;;0.70;0.70;;;25.00;50.10;;;;;;4977585;28;20474;-78
2022/05/10 09:47:55;;;;;;;0.67;0.60;;;24.90;51.40;;;;;;4977419;28;20430;-78
2022/05/10 09:50:26;;;;;;;0.70;0.70;;;24.80;51.10;;;;;;4976488;28;20913;-78
2022/05/10 09:53:09;;;;;;;0.60;0.60;;;25.00;52.10;;;;;;4977033;28;20493;-78
2022/05/10 09:55:36;;;;;;;0.67;0.60;;;25.00;51.70;;;;;;4977054;28;20462;-78
2022/05/10 09:58:16;;;;;;;0.90;0.67;;;25.10;51.60;;;;;;4976295;28;20486;-78
2022/05/10 10:00:45;;;;;;;0.97;0.87;;;25.00;49.90;;;;;;4977168;28;20442;-78
2022/05/10 10:03:24;;;;;;;0.60;0.60;;;25.30;51.70;;;;;;4977145;28;20465;-78
2022/05/10 10:05:50;;;;;;;0.80;0.80;;;25.30;52.40;;;;;;4978900;28;20469;-79
2022/05/10 10:08:17;;;;;;;0.60;0.60;;;25.50;51.50;;;;;;4976877;28;20446;-78
2022/05/10 10:10:43;;;;;;;4.20;0.87;;;25.60;48.20;;;;;;4976805;28;20454;-78
2022/05/10 10:13:30;;;;;;;0.60;0.60;;;25.50;47.40;;;;;;4975860;28;20481;-78
2022/05/10 10:15:57;;;;;;;0.70;0.60;;;25.50;48.70;;;;;;4976907;28;20482;-78
2022/05/10 10:18:45;;;;;;;0.70;0.60;;;25.60;50.40;;;;;;4975452;28;20540;-77
2022/05/10 10:21:15;;;;;;;0.80;0.60;;;25.60;48.10;;;;;;4975806;28;20442;-78
2022/05/10 10:23:48;;;;;;;0.70;0.60;;;25.40;49.10;;;;;;4976037;28;20941;-78
2022/05/10 10:26:23;;;;;;;0.70;0.60;;;25.20;48.70;;;;;;4976249;28;21044;-78
2022/05/10 10:28:56;;;;;;;0.80;0.80;;;24.90;50.00;;;;;;4976657;28;20485;-78
2022/05/10 10:31:27;;;;;;;0.70;0.70;;;24.90;50.20;;;;;;4976293;28;20489;-77
2022/05/10 10:34:01;;;;;;;0.70;0.70;;;24.50;49.90;;;;;;4979984;28;20431;-78
2022/05/10 10:36:33;;;;;;;0.70;0.70;;;24.20;50.10;;;;;;4979884;28;20474;-78
2022/05/10 10:39:05;;;;;;;0.70;0.70;;;24.20;52.40;;;;;;4981891;28;20466;-78
2022/05/10 10:41:39;;;;;;;0.70;0.70;;;24.60;49.90;;;;;;4989895;28;20458;-79
2022/05/10 10:44:13;;;;;;;0.70;0.70;;;24.70;51.70;;;;;;4994799;28;20430;-79
2022/05/10 10:46:47;;;;;;;0.80;0.70;;;25.10;49.20;;;;;;4995528;28;20474;-79
2022/05/10 10:49:15;;;;;;;0.80;0.70;;;25.30;49.00;;;;;;4994675;28;20430;-79
2022/05/10 10:51:42;;;;;;;0.80;0.80;;;25.50;48.00;;;;;;4991273;28;20445;-79
2022/05/10 10:54:16;;;;;;;0.70;0.67;;;25.80;49.70;;;;;;4979299;28;20481;-79
2022/05/10 10:56:58;;;;;;;0.70;0.70;;;25.50;47.30;;;;;;4979440;28;20477;-79
2022/05/10 10:59:45;;;;;;;0.70;0.70;;;25.60;49.00;;;;;;4980922;28;20524;-79
2022/05/10 11:02:47;;;;;;;0.87;0.70;;;25.70;46.80;;;;;;4980066;28;20488;-78
2022/05/10 11:05:29;;;;;;;1.27;0.80;;;25.70;45.00;;;;;;4978797;28;20473;-78
2022/05/10 11:08:08;;;;;;;0.60;0.60;;;25.40;46.60;;;;;;4980522;28;20840;-79
2022/05/10 11:10:43;;;;;;;0.60;0.57;;;25.30;48.30;;;;;;4983550;28;20446;-79
2022/05/10 11:13:22;;;;;;;0.60;0.60;;;25.80;48.60;;;;;;4992772;28;20442;-79
2022/05/10 11:16:00;;;;;;;1.43;0.70;;;26.20;46.50;;;;;;4992393;28;20490;-78
2022/05/10 11:18:38;;;;;;;0.60;0.60;;;26.20;45.50;;;;;;4992832;28;20470;-79
2022/05/10 11:21:19;;;;;;;0.60;0.50;;;25.80;46.10;;;;;;4991441;28;20438;-78
2022/05/10 11:23:53;;;;;;;0.70;0.60;;;26.00;46.80;;;;;;4990601;28;20841;-79
2022/05/10 11:26:32;;;;;;;0.70;0.70;;;26.40;46.80;;;;;;4991413;28;20482;-79
2022/05/10 11:29:37;;;;;;;0.60;0.60;;;26.80;42.60;;;;;;4992005;28;20890;-79
2022/05/10 11:32:20;;;;;;;0.60;0.60;;;27.20;42.50;;;;;;4981582;28;20999;-79
2022/05/10 11:35:20;;;;;;;0.60;0.60;;;27.40;41.60;;;;;;4992380;28;20462;-79
2022/05/10 11:37:51;;;;;;;0.60;0.60;;;27.70;40.70;;;;;;4992070;28;20426;-79
2022/05/10 11:40:39;;;;;;;0.70;0.60;;;27.80;41.80;;;;;;4985866;28;20434;-79
2022/05/10 11:43:39;;;;;;;0.70;0.60;;;28.00;42.00;;;;;;4978485;28;20474;-79
2022/05/10 11:46:35;;;;;;;0.60;0.60;;;28.30;41.10;;;;;;4978009;28;20520;-79
2022/05/10 11:49:30;;;;;;;0.60;0.60;;;28.00;40.30;;;;;;4977886;28;20438;-79
2022/05/10 11:52:24;;;;;;;0.70;0.60;;;27.60;40.70;;;;;;4978819;28;20493;-79
2022/05/10 11:55:06;;;;;;;0.70;0.70;;;27.60;41.00;;;;;;4978255;28;20532;-79
2022/05/10 11:57:35;;;;;;;0.70;0.60;;;27.40;41.50;;;;;;4978131;28;20474;-79
2022/05/10 12:00:38;;;;;;;1.30;0.70;;;27.40;43.40;;;;;;4977913;28;20494;-79
2022/05/10 12:03:06;;;;;;;0.70;0.70;;;27.10;42.40;;;;;;4977794;28;20442;-79
2022/05/10 12:05:36;;;;;;;0.70;0.60;;;26.80;42.40;;;;;;4977776;28;20565;-79
2022/05/10 12:08:04;;;;;;;0.60;0.60;;;26.80;42.60;;;;;;4977748;28;20446;-79
2022/05/10 12:10:41;;;;;;;0.73;0.73;;;26.70;43.00;;;;;;4977697;28;20872;-79
2022/05/10 12:22:06;;;;;;;0.90;0.60;;;27.50;44.00;;;;;;4977319;28;20409;-78
2022/05/10 12:24:36;;;;;;;0.70;0.60;;;27.40;42.70;;;;;;4977061;28;20434;-78
2022/05/10 12:27:31;;;;;;;0.70;0.60;;;27.40;43.60;;;;;;4977296;28;20493;-79
2022/05/10 12:30:33;;;;;;;0.70;0.50;;;27.20;43.50;;;;;;4967834;28;20958;-78
2022/05/10 12:33:32;;;;;;;0.60;0.60;;;27.10;42.90;;;;;;4976709;28;20506;-79
2022/05/10 12:36:07;;;;;;;0.70;0.60;;;27.40;42.70;;;;;;4977348;28;20524;-79
2022/05/10 12:38:48;;;;;;;0.70;0.60;;;27.30;42.40;;;;;;4976814;28;20497;-79
2022/05/10 12:41:42;;;;;;;0.70;0.60;;;27.30;43.10;;;;;;4976935;28;20446;-79
2022/05/10 12:44:46;;;;;;;0.80;0.70;;;27.30;42.90;;;;;;4971904;28;20507;-78
2022/05/10 12:47:32;;;;;;;0.70;0.70;;;26.90;43.00;;;;;;4966462;28;20560;-79
2022/05/10 12:50:08;;;;;;;0.70;0.60;;;26.70;44.10;;;;;;4977181;28;20430;-79
2022/05/10 12:52:43;;;;;;;0.63;0.60;;;27.00;44.60;;;;;;4978091;28;20470;-79
2022/05/10 12:55:18;;;;;;;0.60;0.60;;;27.30;42.80;;;;;;4977177;28;20497;-79
2022/05/10 12:57:50;;;;;;;0.70;0.60;;;27.30;43.10;;;;;;4976983;28;20913;-78
2022/05/10 13:00:22;;;;;;;0.60;0.60;;;27.40;41.60;;;;;;4977224;28;20470;-79
2022/05/10 13:02:55;;;;;;;0.60;0.60;;;27.70;44.30;;;;;;4976121;28;20438;-79
2022/05/10 13:05:40;;;;;;;0.70;0.60;;;27.80;43.00;;;;;;4976025;28;20886;-79
2022/05/10 13:08:26;;;;;;;0.60;0.60;;;28.10;41.70;;;;;;4975785;28;20815;-74
2022/05/10 13:10:55;;;;;;;0.67;0.60;;;28.00;41.30;;;;;;4975731;28;20497;-75
2022/05/10 13:13:27;;;;;;;0.60;0.60;;;27.80;41.50;;;;;;4976011;28;20454;-75
2022/05/10 13:15:55;;;;;;;0.60;0.60;;;27.90;43.40;;;;;;4975835;28;20538;-74
2022/05/10 13:18:25;;;;;;;0.60;0.60;;;27.90;41.90;;;;;;4978350;28;20446;-74
2022/05/10 13:20:54;;;;;;;0.60;0.60;;;27.80;41.50;;;;;;4977250;28;20489;-73
2022/05/10 13:23:26;;;;;;;0.70;0.70;;;27.70;42.40;;;;;;4979530;28;20450;-73
2022/05/10 13:25:54;;;;;;;0.60;0.60;;;27.80;43.20;;;;;;4976350;28;20470;-72
2022/05/10 13:28:23;;;;;;;0.90;0.70;;;27.90;42.80;;;;;;4976464;28;20445;-73
2022/05/10 13:30:51;;;;;;;0.80;0.60;;;27.70;43.80;;;;;;4977718;28;20450;-73
2022/05/10 13:33:24;;;;;;;0.67;0.60;;;28.00;43.10;;;;;;4977139;28;20468;-73
2022/05/10 13:35:55;;;;;;;0.73;0.70;;;28.20;43.40;;;;;;4977124;28;20470;-73
2022/05/10 13:38:26;;;;;;;0.70;0.70;;;28.30;41.90;;;;;;4977215;28;20426;-73
2022/05/10 13:40:59;;;;;;;0.67;0.60;;;28.60;44.90;;;;;;4977352;28;20449;-73
2022/05/10 13:43:33;;;;;;;0.70;0.70;;;28.70;42.80;;;;;;4976611;28;20438;-73
2022/05/10 13:46:02;;;;;;;0.60;0.60;;;28.20;43.20;;;;;;4976515;28;20474;-72
2022/05/10 13:48:31;;;;;;;0.70;0.70;;;28.60;43.90;;;;;;4978513;28;20521;-73
2022/05/10 13:51:08;;;;;;;0.60;0.60;;;28.70;41.90;;;;;;4977106;28;20453;-72
2022/05/10 13:53:36;;;;;;;0.80;0.70;;;28.80;42.10;;;;;;4977699;28;20430;-72
2022/05/10 13:56:06;;;;;;;0.70;0.70;;;28.90;42.60;;;;;;4977643;28;20962;-72
2022/05/10 13:58:37;;;;;;;0.90;0.70;;;29.10;43.10;;;;;;4977804;28;20446;-73
2022/05/10 14:01:04;;;;;;;0.70;0.60;;;29.10;41.60;;;;;;4977321;28;20442;-72
2022/05/10 14:03:31;;;;;;;0.70;0.70;;;29.20;41.10;;;;;;4977890;28;20902;-72
2022/05/10 14:06:04;;;;;;;1.10;0.60;;;29.40;43.60;;;;;;4976777;28;20477;-73
2022/05/10 14:08:33;;;;;;;0.70;0.70;;;29.30;43.10;;;;;;4978475;28;20549;-73
2022/05/10 14:11:07;;;;;;;0.70;0.70;;;29.40;42.20;;;;;;4979061;28;20453;-73
2022/05/10 14:13:38;;;;;;;0.93;0.63;;;29.30;41.00;;;;;;4977310;28;20528;-72
2022/05/10 14:16:05;;;;;;;0.70;0.67;;;29.30;41.90;;;;;;4979552;28;20490;-73
2022/05/10 14:18:36;;;;;;;0.60;0.60;;;29.60;40.20;;;;;;4979602;28;20458;-73
2022/05/10 14:21:12;;;;;;;0.70;0.60;;;29.80;40.90;;;;;;4979289;28;20570;-73
2022/05/10 14:23:39;;;;;;;0.97;0.60;;;29.80;41.10;;;;;;4978889;28;20453;-73
2022/05/10 14:26:29;;;;;;;0.63;0.60;;;29.90;40.60;;;;;;4978025;28;20472;-73
2022/05/10 14:29:06;;;;;;;0.70;0.60;;;29.90;40.30;;;;;;4979526;28;20426;-73
2022/05/10 14:31:36;;;;;;;0.63;0.60;;;29.90;41.60;;;;;;4976665;28;20438;-75
2022/05/10 14:34:03;;;;;;;0.70;0.70;;;29.90;41.30;;;;;;4976575;28;20496;-73
2022/05/10 14:36:35;;;;;;;0.70;0.67;;;29.00;41.40;;;;;;4976498;28;20565;-75
2022/05/10 14:39:04;;;;;;;0.70;0.60;;;28.80;42.10;;;;;;4974326;28;20465;-75
2022/05/10 14:41:36;;;;;;;0.70;0.70;;;29.00;43.40;;;;;;4974459;28;20454;-75
2022/05/10 14:44:13;;;;;;;0.80;0.70;;;28.80;42.70;;;;;;4979415;28;20466;-74
2022/05/10 14:46:51;;;;;;;0.60;0.60;;;28.60;42.10;;;;;;4974457;28;20521;-72
2022/05/10 14:49:33;;;;;;;0.70;0.70;;;28.50;44.20;;;;;;4976745;28;20438;-75
2022/05/10 14:52:01;;;;;;;0.60;0.60;;;28.70;44.70;;;;;;4974310;28;20438;-75
2022/05/10 14:54:36;;;;;;;0.63;0.60;;;29.00;43.50;;;;;;4974239;28;20445;-76
2022/05/10 14:57:07;;;;;;;0.70;0.60;;;28.90;42.40;;;;;;4974506;28;20453;-76
2022/05/10 14:59:51;;;;;;;0.70;0.67;;;28.80;42.20;;;;;;4973770;28;20985;-76
2022/05/10 15:02:22;;;;;;;0.70;0.70;;;28.70;41.70;;;;;;4974252;28;20438;-75
2022/05/10 15:04:49;;;;;;;0.90;0.67;;;28.70;41.80;;;;;;4974031;28;20474;-75
2022/05/10 15:07:16;;;;;;;0.70;0.70;;;28.70;42.30;;;;;;4975690;28;20505;-75
2022/05/10 15:09:43;;;;;;;0.70;0.60;;;28.80;41.80;;;;;;4974102;28;20496;-75
2022/05/10 15:17:23;;;;;;;0.70;0.70;;;29.50;41.90;;;;;;5094226;23;20539;-68
2022/05/10 15:19:50;;;;;;;0.70;0.70;;;29.90;41.40;;;;;;4996409;28;20484;-69
2022/05/10 15:22:17;;;;;;;0.73;0.73;;;30.10;40.50;;;;;;4996401;28;20449;-69
2022/05/10 15:24:44;;;;;;;0.60;0.60;;;30.30;40.10;;;;;;4996452;28;20452;-68
2022/05/10 15:27:17;;;;;;;0.93;0.70;;;30.30;39.20;;;;;;4996234;28;20477;-68
2022/05/10 15:29:46;;;;;;;0.70;0.70;;;30.30;40.50;;;;;;4996654;28;20437;-69
2022/05/10 15:32:13;;;;;;;0.70;0.60;;;29.60;40.70;;;;;;4996193;28;20459;-68
2022/05/10 15:34:44;;;;;;;0.70;0.70;;;28.70;40.60;;;;;;4996224;28;20625;-68
2022/05/10 15:37:11;;;;;;;1.27;0.70;;;28.90;42.50;;;;;;4996179;28;20841;-68
2022/05/10 15:39:38;;;;;;;0.70;0.70;;;28.90;41.50;;;;;;4996193;28;20480;-68
2022/05/10 15:42:07;;;;;;;0.70;0.60;;;28.90;42.30;;;;;;4996082;28;20453;-69
2022/05/10 15:44:34;;;;;;;0.67;0.60;;;28.90;42.10;;;;;;4995819;28;20921;-69
2022/05/10 15:47:01;;;;;;;0.70;0.70;;;29.00;43.60;;;;;;4995844;28;20552;-68
2022/05/10 15:49:27;;;;;;;0.70;0.60;;;28.90;42.60;;;;;;4995961;28;20499;-68
2022/05/10 15:51:55;;;;;;;0.80;0.70;;;28.90;44.10;;;;;;4996465;28;20500;-68
2022/05/10 15:54:22;;;;;;;0.70;0.70;;;28.80;44.90;;;;;;4996219;28;20453;-67
2022/05/10 15:56:48;;;;;;;0.70;0.70;;;28.70;45.90;;;;;;4996148;28;20882;-69
2022/05/10 15:59:15;;;;;;;0.70;0.70;;;28.50;46.40;;;;;;4995305;28;20947;-67
2022/05/10 16:01:43;;;;;;;0.80;0.80;;;28.40;46.40;;;;;;4995512;28;20812;-68
2022/05/10 16:04:10;;;;;;;0.70;0.67;;;28.40;47.00;;;;;;4995619;28;20535;-69
2022/05/10 16:06:38;;;;;;;0.70;0.70;;;28.10;47.30;;;;;;4995578;28;20552;-68
2022/05/10 16:09:06;;;;;;;0.63;0.60;;;28.00;47.30;;;;;;4995492;28;21036;-67
2022/05/10 16:11:33;;;;;;;0.80;0.70;;;28.00;47.90;;;;;;4995546;28;20453;-69
2022/05/10 16:14:00;;;;;;;0.80;0.80;;;27.90;48.30;;;;;;4995581;28;20457;-68
2022/05/10 16:16:27;;;;;;;0.70;0.67;;;27.90;48.10;;;;;;4995190;28;20481;-68
2022/05/10 16:18:54;;;;;;;0.80;0.80;;;28.00;48.20;;;;;;4995077;28;20882;-68
2022/05/10 16:21:21;;;;;;;0.70;0.70;;;28.00;48.60;;;;;;4995338;28;20543;-68
2022/05/10 16:23:47;;;;;;;0.87;0.80;;;27.90;49.20;;;;;;4995403;28;20445;-68
2022/05/10 16:31:44;;;;;;;0.70;0.70;;;27.80;49.20;;;;;;4994945;28;20529;-68
2022/05/10 16:34:11;;;;;;;0.70;0.70;;;27.80;49.20;;;;;;4994966;28;20800;-69
2022/05/10 16:36:37;;;;;;;0.67;0.60;;;27.80;50.30;;;;;;4995603;28;20543;-69
2022/05/10 16:39:04;;;;;;;0.80;0.73;;;27.80;49.00;;;;;;4994777;28;20991;-68